sensor_id;sensor_type;location;lat;lon;timestamp;pressure;altitude;pressure_sealevel;temperature;humidity
42621;BME280;28252;53.336;-6.298;2023-02-13T00:00:34;102554.78;;;23.77;76.98
42621;BME280;28252;53.336;-6.298;2023-02-13T00:01:09;102549.50;;;23.76;77.42
42621;BME280;28252;53.336;-6.298;2023-02-13T00:01:42;102551.50;;;23.74;78.51
42621;BME280;28252;53.336;-6.298;2023-02-13T00:02:18;102555.94;;;23.75;76.49
42621;BME280;28252;53.336;-6.298;2023-02-13T00:02:54;102559.69;;;23.74;76.79
42621;BME280;28252;53.336;-6.298;2023-02-13T00:03:32;102547.91;;;23.73;76.90
42621;BME280;28252;53.336;-6.298;2023-02-13T00:04:05;102556.97;;;23.74;77.64
42621;BME280;28252;53.336;-6.298;2023-02-13T00:04:38;102556.97;;;23.74;77.37
42621;BME280;28252;53.336;-6.298;2023-02-13T00:05:14;102552.50;;;23.73;77.27
42621;BME280;28252;53.336;-6.298;2023-02-13T00:05:45;102557.09;;;23.72;77.91
42621;BME280;28252;53.336;-6.298;2023-02-13T00:06:20;102554.53;;;23.71;78.11
42621;BME280;28252;53.336;-6.298;2023-02-13T00:06:51;102553.69;;;23.70;77.59
42621;BME280;28252;53.336;-6.298;2023-02-13T00:07:24;102547.34;;;23.69;77.57
42621;BME280;28252;53.336;-6.298;2023-02-13T00:07:57;102551.94;;;23.69;77.95
42621;BME280;28252;53.336;-6.298;2023-02-13T00:08:28;102552.81;;;23.69;77.29
42621;BME280;28252;53.336;-6.298;2023-02-13T00:09:01;102552.81;;;23.69;77.09
42621;BME280;28252;53.336;-6.298;2023-02-13T00:09:37;102559.13;;;23.70;77.04
42621;BME280;28252;53.336;-6.298;2023-02-13T00:10:08;102555.66;;;23.68;77.69
42621;BME280;28252;53.336;-6.298;2023-02-13T00:10:42;102553.09;;;23.66;78.99
42621;BME280;28252;53.336;-6.298;2023-02-13T00:11:15;102551.41;;;23.65;78.85
42621;BME280;28252;53.336;-6.298;2023-02-13T00:11:49;102555.13;;;23.64;78.25
42621;BME280;28252;53.336;-6.298;2023-02-13T00:12:22;102560.56;;;23.64;78.42
42621;BME280;28252;53.336;-6.298;2023-02-13T00:12:55;102555.25;;;23.63;79.80
42621;BME280;28252;53.336;-6.298;2023-02-13T00:13:26;102557.41;;;23.59;79.50
42621;BME280;28252;53.336;-6.298;2023-02-13T00:13:59;102555.00;;;23.56;79.47
42621;BME280;28252;53.336;-6.298;2023-02-13T00:14:33;102553.28;;;23.55;79.45
42621;BME280;28252;53.336;-6.298;2023-02-13T00:15:11;102551.56;;;23.54;80.08
42621;BME280;28252;53.336;-6.298;2023-02-13T00:15:44;102555.31;;;23.53;79.43
42621;BME280;28252;53.336;-6.298;2023-02-13T00:16:15;102553.56;;;23.52;80.36
42621;BME280;28252;53.336;-6.298;2023-02-13T00:16:46;102553.88;;;23.49;80.35
42621;BME280;28252;53.336;-6.298;2023-02-13T00:17:19;102553.88;;;23.49;80.21
42621;BME280;28252;53.336;-6.298;2023-02-13T00:17:54;102556.59;;;23.49;79.47
42621;BME280;28252;53.336;-6.298;2023-02-13T00:18:32;102555.75;;;23.48;80.19
42621;BME280;28252;53.336;-6.298;2023-02-13T00:19:07;102552.16;;;23.48;80.33
42621;BME280;28252;53.336;-6.298;2023-02-13T00:19:43;102556.88;;;23.46;80.43
42621;BME280;28252;53.336;-6.298;2023-02-13T00:20:14;102559.44;;;23.47;79.75
42621;BME280;28252;53.336;-6.298;2023-02-13T00:21:01;102548.72;;;23.46;79.71
42621;BME280;28252;53.336;-6.298;2023-02-13T00:21:34;102556.72;;;23.47;79.51
42621;BME280;28252;53.336;-6.298;2023-02-13T00:22:05;102554.91;;;23.48;78.95
42621;BME280;28252;53.336;-6.298;2023-02-13T00:22:38;102548.44;;;23.49;78.59
42621;BME280;28252;53.336;-6.298;2023-02-13T00:23:09;102552.00;;;23.49;78.37
42621;BME280;28252;53.336;-6.298;2023-02-13T00:23:43;102545.56;;;23.50;78.31
42621;BME280;28252;53.336;-6.298;2023-02-13T00:24:17;102549.13;;;23.51;78.51
42621;BME280;28252;53.336;-6.298;2023-02-13T00:24:48;102556.31;;;23.52;78.57
42621;BME280;28252;53.336;-6.298;2023-02-13T00:25:21;102547.28;;;23.52;78.61
42621;BME280;28252;53.336;-6.298;2023-02-13T00:25:54;102548.13;;;23.52;78.19
42621;BME280;28252;53.336;-6.298;2023-02-13T00:26:25;102555.44;;;23.52;77.87
42621;BME280;28252;53.336;-6.298;2023-02-13T00:26:58;102549.00;;;23.53;77.76
42621;BME280;28252;53.336;-6.298;2023-02-13T00:27:31;102545.41;;;23.52;77.97
42621;BME280;28252;53.336;-6.298;2023-02-13T00:28:03;102545.41;;;23.52;78.17
42621;BME280;28252;53.336;-6.298;2023-02-13T00:28:36;102552.59;;;23.53;78.02
42621;BME280;28252;53.336;-6.298;2023-02-13T00:29:08;102548.13;;;23.52;77.67
42621;BME280;28252;53.336;-6.298;2023-02-13T00:29:39;102549.00;;;23.53;77.56
42621;BME280;28252;53.336;-6.298;2023-02-13T00:30:12;102545.41;;;23.52;77.52
42621;BME280;28252;53.336;-6.298;2023-02-13T00:30:51;102546.28;;;23.53;77.81
42621;BME280;28252;53.336;-6.298;2023-02-13T00:32:46;102549.13;;;23.51;77.86
42621;BME280;28252;53.336;-6.298;2023-02-13T00:33:19;102550.88;;;23.52;77.41
42621;BME280;28252;53.336;-6.298;2023-02-13T00:33:50;102543.69;;;23.51;77.60
42621;BME280;28252;53.336;-6.298;2023-02-13T00:34:21;102550.00;;;23.52;77.67
42621;BME280;28252;53.336;-6.298;2023-02-13T00:34:55;102550.16;;;23.50;77.42
42621;BME280;28252;53.336;-6.298;2023-02-13T00:35:27;102544.72;;;23.50;77.67
42621;BME280;28252;53.336;-6.298;2023-02-13T00:36:19;102550.16;;;23.50;78.00
42621;BME280;28252;53.336;-6.298;2023-02-13T00:36:55;102555.59;;;23.50;77.64
42621;BME280;28252;53.336;-6.298;2023-02-13T00:37:28;102551.16;;;23.49;77.30
42621;BME280;28252;53.336;-6.298;2023-02-13T00:38:01;102553.88;;;23.49;77.61
42621;BME280;28252;53.336;-6.298;2023-02-13T00:38:39;102544.00;;;23.48;77.40
42621;BME280;28252;53.336;-6.298;2023-02-13T00:39:11;102552.16;;;23.48;77.32
42621;BME280;28252;53.336;-6.298;2023-02-13T00:39:45;102546.88;;;23.46;77.73
42621;BME280;28252;53.336;-6.298;2023-02-13T00:40:18;102550.44;;;23.47;77.73
42621;BME280;28252;53.336;-6.298;2023-02-13T00:40:51;102550.44;;;23.47;77.19
42621;BME280;28252;53.336;-6.298;2023-02-13T00:41:27;102548.72;;;23.46;77.57
42621;BME280;28252;53.336;-6.298;2023-02-13T00:42:02;102544.31;;;23.45;77.64
42621;BME280;28252;53.336;-6.298;2023-02-13T00:42:33;102544.31;;;23.45;77.41
42621;BME280;28252;53.336;-6.298;2023-02-13T00:43:04;102543.44;;;23.44;77.83
42621;BME280;28252;53.336;-6.298;2023-02-13T00:43:35;102542.56;;;23.44;77.72
42621;BME280;28252;53.336;-6.298;2023-02-13T00:44:09;102538.16;;;23.43;77.67
42621;BME280;28252;53.336;-6.298;2023-02-13T00:44:42;102541.88;;;23.42;77.56
42621;BME280;28252;53.336;-6.298;2023-02-13T00:45:13;102546.31;;;23.43;77.87
42621;BME280;28252;53.336;-6.298;2023-02-13T00:45:44;102543.75;;;23.41;77.57
42621;BME280;28252;53.336;-6.298;2023-02-13T00:46:21;102548.31;;;23.41;77.38
42621;BME280;28252;53.336;-6.298;2023-02-13T00:46:57;102546.59;;;23.40;77.25
42621;BME280;28252;53.336;-6.298;2023-02-13T00:47:28;102546.59;;;23.40;77.41
42621;BME280;28252;53.336;-6.298;2023-02-13T00:48:01;102551.16;;;23.39;77.49
42621;BME280;28252;53.336;-6.298;2023-02-13T00:48:32;102547.59;;;23.39;77.46
42621;BME280;28252;53.336;-6.298;2023-02-13T00:49:09;102540.44;;;23.38;77.35
42621;BME280;28252;53.336;-6.298;2023-02-13T00:49:44;102536.03;;;23.37;77.84
42621;BME280;28252;53.336;-6.298;2023-02-13T00:50:17;102542.31;;;23.37;77.53
42621;BME280;28252;53.336;-6.298;2023-02-13T00:50:53;102536.03;;;23.37;77.47
42621;BME280;28252;53.336;-6.298;2023-02-13T00:51:24;102538.72;;;23.37;77.57
42621;BME280;28252;53.336;-6.298;2023-02-13T00:51:57;102538.88;;;23.35;77.61
42621;BME280;28252;53.336;-6.298;2023-02-13T00:52:30;102540.75;;;23.35;77.95
42621;BME280;28252;53.336;-6.298;2023-02-13T00:53:04;102545.16;;;23.36;77.67
42621;BME280;28252;53.336;-6.298;2023-02-13T00:53:39;102534.44;;;23.34;77.81
42621;BME280;28252;53.336;-6.298;2023-02-13T00:54:15;102535.47;;;23.33;77.73
42621;BME280;28252;53.336;-6.298;2023-02-13T00:54:50;102536.44;;;23.32;77.73
42621;BME280;28252;53.336;-6.298;2023-02-13T00:55:27;102538.31;;;23.31;77.51
42621;BME280;28252;53.336;-6.298;2023-02-13T00:55:58;102534.75;;;23.31;77.29
42621;BME280;28252;53.336;-6.298;2023-02-13T00:56:34;102538.31;;;23.31;77.54
42621;BME280;28252;53.336;-6.298;2023-02-13T00:57:12;102539.31;;;23.30;77.47
42621;BME280;28252;53.336;-6.298;2023-02-13T00:57:46;102535.75;;;23.30;77.80
42621;BME280;28252;53.336;-6.298;2023-02-13T00:58:20;102533.88;;;23.30;77.52
42621;BME280;28252;53.336;-6.298;2023-02-13T00:58:51;102534.00;;;23.29;77.42
42621;BME280;28252;53.336;-6.298;2023-02-13T00:59:22;102538.59;;;23.28;77.27
42621;BME280;28252;53.336;-6.298;2023-02-13T00:59:56;102534.91;;;23.29;77.36
42621;BME280;28252;53.336;-6.298;2023-02-13T01:00:27;102536.03;;;23.27;78.00
42621;BME280;28252;53.336;-6.298;2023-02-13T01:01:00;102535.31;;;23.25;78.33
42621;BME280;28252;53.336;-6.298;2023-02-13T01:02:54;102533.75;;;23.22;78.24
42621;BME280;28252;53.336;-6.298;2023-02-13T01:03:27;102536.47;;;23.22;77.73
42621;BME280;28252;53.336;-6.298;2023-02-13T01:04:00;102535.75;;;23.20;78.19
42621;BME280;28252;53.336;-6.298;2023-02-13T01:04:33;102536.63;;;23.21;78.12
42621;BME280;28252;53.336;-6.298;2023-02-13T01:05:07;102550.22;;;23.21;78.21
42621;BME280;28252;53.336;-6.298;2023-02-13T01:05:43;102540.34;;;23.20;78.11
42621;BME280;28252;53.336;-6.298;2023-02-13T01:06:16;102542.06;;;23.21;78.18
42621;BME280;28252;53.336;-6.298;2023-02-13T01:06:47;102543.06;;;23.20;78.37
42621;BME280;28252;53.336;-6.298;2023-02-13T01:07:21;102544.94;;;23.19;78.45
42621;BME280;28252;53.336;-6.298;2023-02-13T01:07:54;102540.47;;;23.18;78.17
42621;BME280;28252;53.336;-6.298;2023-02-13T01:08:25;102548.63;;;23.18;78.04
42621;BME280;28252;53.336;-6.298;2023-02-13T01:09:02;102548.63;;;23.18;78.03
42621;BME280;28252;53.336;-6.298;2023-02-13T01:09:36;102547.78;;;23.18;77.84
42621;BME280;28252;53.336;-6.298;2023-02-13T01:10:07;102546.91;;;23.17;78.35
42621;BME280;28252;53.336;-6.298;2023-02-13T01:10:40;102557.78;;;23.17;78.12
42621;BME280;28252;53.336;-6.298;2023-02-13T01:11:14;102550.66;;;23.16;78.48
42621;BME280;28252;53.336;-6.298;2023-02-13T01:11:50;102547.94;;;23.16;78.14
42621;BME280;28252;53.336;-6.298;2023-02-13T01:12:26;102550.78;;;23.15;78.30
42621;BME280;28252;53.336;-6.298;2023-02-13T01:13:02;102555.38;;;23.14;78.80
42621;BME280;28252;53.336;-6.298;2023-02-13T01:13:35;102548.94;;;23.15;77.87
42621;BME280;28252;53.336;-6.298;2023-02-13T01:14:08;102547.22;;;23.14;78.51
42621;BME280;28252;53.336;-6.298;2023-02-13T01:14:42;102541.78;;;23.14;78.58
42621;BME280;28252;53.336;-6.298;2023-02-13T01:15:15;102542.78;;;23.13;78.94
42621;BME280;28252;53.336;-6.298;2023-02-13T01:15:46;102538.34;;;23.12;78.94
42621;BME280;28252;53.336;-6.298;2023-02-13T01:16:18;102543.78;;;23.12;79.04
42621;BME280;28252;53.336;-6.298;2023-02-13T01:16:53;102544.78;;;23.11;78.64
42621;BME280;28252;53.336;-6.298;2023-02-13T01:17:29;102537.63;;;23.10;78.47
42621;BME280;28252;53.336;-6.298;2023-02-13T01:18:02;102545.78;;;23.10;78.95
42621;BME280;28252;53.336;-6.298;2023-02-13T01:18:36;102534.06;;;23.09;78.70
42621;BME280;28252;53.336;-6.298;2023-02-13T01:19:12;102537.78;;;23.08;78.42
42621;BME280;28252;53.336;-6.298;2023-02-13T01:19:45;102536.94;;;23.08;78.93
42621;BME280;28252;53.336;-6.298;2023-02-13T01:20:16;102533.22;;;23.09;78.75
42621;BME280;28252;53.336;-6.298;2023-02-13T01:21:02;102540.63;;;23.07;79.19
42621;BME280;28252;53.336;-6.298;2023-02-13T01:21:35;102537.19;;;23.05;79.80
42621;BME280;28252;53.336;-6.298;2023-02-13T01:23:07;102541.75;;;23.04;79.05
42621;BME280;28252;53.336;-6.298;2023-02-13T01:23:38;102540.91;;;23.04;78.79
42621;BME280;28252;53.336;-6.298;2023-02-13T01:24:11;102538.34;;;23.02;79.56
42621;BME280;28252;53.336;-6.298;2023-02-13T01:24:44;102533.75;;;23.03;79.14
42621;BME280;28252;53.336;-6.298;2023-02-13T01:25:19;102538.34;;;23.02;78.79
42621;BME280;28252;53.336;-6.298;2023-02-13T01:25:52;102542.75;;;23.03;79.10
42621;BME280;28252;53.336;-6.298;2023-02-13T01:26:25;102541.91;;;23.03;78.83
42621;BME280;28252;53.336;-6.298;2023-02-13T01:26:58;102539.31;;;23.01;79.51
42621;BME280;28252;53.336;-6.298;2023-02-13T01:27:35;102542.88;;;23.02;79.07
42621;BME280;28252;53.336;-6.298;2023-02-13T01:28:13;102534.03;;;23.00;78.91
42621;BME280;28252;53.336;-6.298;2023-02-13T01:28:45;102537.59;;;23.00;78.84
42621;BME280;28252;53.336;-6.298;2023-02-13T01:29:19;102530.47;;;22.99;78.75
42621;BME280;28252;53.336;-6.298;2023-02-13T01:29:52;102521.47;;;22.99;79.14
42621;BME280;28252;53.336;-6.298;2023-02-13T01:30:23;102533.19;;;22.99;78.75
42621;BME280;28252;53.336;-6.298;2023-02-13T01:30:55;102530.59;;;22.98;78.74
42621;BME280;28252;53.336;-6.298;2023-02-13T01:31:28;102530.47;;;22.99;78.74
42621;BME280;28252;53.336;-6.298;2023-02-13T01:32:02;102526.16;;;22.97;79.48
42621;BME280;28252;53.336;-6.298;2023-02-13T01:32:34;102527.19;;;22.96;79.08
42621;BME280;28252;53.336;-6.298;2023-02-13T01:33:10;102529.91;;;22.96;79.32
42621;BME280;28252;53.336;-6.298;2023-02-13T01:33:43;102527.19;;;22.96;79.28
42621;BME280;28252;53.336;-6.298;2023-02-13T01:34:18;102528.19;;;22.94;79.32
42621;BME280;28252;53.336;-6.298;2023-02-13T01:34:49;102525.47;;;22.94;79.63
42621;BME280;28252;53.336;-6.298;2023-02-13T01:35:22;102529.19;;;22.93;79.56
42621;BME280;28252;53.336;-6.298;2023-02-13T01:35:58;102528.31;;;22.93;79.22
42621;BME280;28252;53.336;-6.298;2023-02-13T01:36:34;102525.75;;;22.91;79.70
42621;BME280;28252;53.336;-6.298;2023-02-13T01:37:05;102520.31;;;22.91;79.12
42621;BME280;28252;53.336;-6.298;2023-02-13T01:37:41;102526.75;;;22.90;79.63
42621;BME280;28252;53.336;-6.298;2023-02-13T01:38:12;102531.16;;;22.91;79.40
42621;BME280;28252;53.336;-6.298;2023-02-13T01:38:43;102527.75;;;22.89;79.07
42621;BME280;28252;53.336;-6.298;2023-02-13T01:39:16;102525.03;;;22.89;79.70
42621;BME280;28252;53.336;-6.298;2023-02-13T01:39:48;102533.19;;;22.89;79.89
42621;BME280;28252;53.336;-6.298;2023-02-13T01:40:22;102532.47;;;22.87;80.19
42621;BME280;28252;53.336;-6.298;2023-02-13T01:40:59;102529.91;;;22.86;80.24
42621;BME280;28252;53.336;-6.298;2023-02-13T01:41:30;102532.75;;;22.84;80.89
42621;BME280;28252;53.336;-6.298;2023-02-13T01:42:03;102530.03;;;22.84;80.40
42621;BME280;28252;53.336;-6.298;2023-02-13T01:42:34;102532.75;;;22.84;79.94
42621;BME280;28252;53.336;-6.298;2023-02-13T01:43:07;102530.03;;;22.84;79.74
42621;BME280;28252;53.336;-6.298;2023-02-13T01:45:59;102531.19;;;22.82;80.65
42621;BME280;28252;53.336;-6.298;2023-02-13T01:46:35;102536.78;;;22.80;80.95
42621;BME280;28252;53.336;-6.298;2023-02-13T01:47:10;102526.91;;;22.79;80.48
42621;BME280;28252;53.336;-6.298;2023-02-13T01:47:46;102527.75;;;22.80;80.59
42621;BME280;28252;53.336;-6.298;2023-02-13T01:48:24;102523.47;;;22.77;80.47
42621;BME280;28252;53.336;-6.298;2023-02-13T01:49:04;102524.31;;;22.78;80.42
42621;BME280;28252;53.336;-6.298;2023-02-13T01:49:42;102531.63;;;22.77;80.95
42621;BME280;28252;53.336;-6.298;2023-02-13T01:51:00;102528.19;;;22.75;80.09
42621;BME280;28252;53.336;-6.298;2023-02-13T01:51:32;102534.47;;;22.75;81.23
42621;BME280;28252;53.336;-6.298;2023-02-13T01:52:09;102529.19;;;22.74;80.89
42621;BME280;28252;53.336;-6.298;2023-02-13T01:52:51;102529.19;;;22.74;80.84
42621;BME280;28252;53.336;-6.298;2023-02-13T01:53:25;102522.03;;;22.73;80.58
42621;BME280;28252;53.336;-6.298;2023-02-13T01:54:01;102527.47;;;22.73;80.96
42621;BME280;28252;53.336;-6.298;2023-02-13T01:54:38;102527.63;;;22.71;81.09
42621;BME280;28252;53.336;-6.298;2023-02-13T01:55:11;102523.19;;;22.70;80.74
42621;BME280;28252;53.336;-6.298;2023-02-13T01:55:51;102521.44;;;22.69;80.73
42621;BME280;28252;53.336;-6.298;2023-02-13T01:57:14;102515.31;;;22.67;80.56
42621;BME280;28252;53.336;-6.298;2023-02-13T01:57:53;102516.16;;;22.68;81.72
42621;BME280;28252;53.336;-6.298;2023-02-13T01:58:32;102512.59;;;22.67;80.90
42621;BME280;28252;53.336;-6.298;2023-02-13T01:59:09;102517.19;;;22.67;80.49
42621;BME280;28252;53.336;-6.298;2023-02-13T02:01:47;102528.31;;;22.64;80.89
42621;BME280;28252;53.336;-6.298;2023-02-13T02:02:19;102523.16;;;22.61;81.12
42621;BME280;28252;53.336;-6.298;2023-02-13T02:02:57;102523.16;;;22.61;81.55
42621;BME280;28252;53.336;-6.298;2023-02-13T02:04:25;102517.75;;;22.61;80.60
42621;BME280;28252;53.336;-6.298;2023-02-13T02:05:03;102512.31;;;22.61;80.78
42621;BME280;28252;53.336;-6.298;2023-02-13T02:05:36;102517.88;;;22.59;81.04
42621;BME280;28252;53.336;-6.298;2023-02-13T02:06:11;102522.47;;;22.59;80.93
42621;BME280;28252;53.336;-6.298;2023-02-13T02:06:49;102518.03;;;22.57;81.23
42621;BME280;28252;53.336;-6.298;2023-02-13T02:07:36;102520.72;;;22.57;80.33
42621;BME280;28252;53.336;-6.298;2023-02-13T02:08:13;102520.03;;;22.55;81.62
42621;BME280;28252;53.336;-6.298;2023-02-13T02:08:47;102522.75;;;22.55;81.41
42621;BME280;28252;53.336;-6.298;2023-02-13T02:09:29;102520.03;;;22.55;81.17
42621;BME280;28252;53.336;-6.298;2023-02-13T02:10:08;102526.47;;;22.54;81.27
42621;BME280;28252;53.336;-6.298;2023-02-13T02:10:43;102526.63;;;22.53;81.04
42621;BME280;28252;53.336;-6.298;2023-02-13T02:11:21;102527.59;;;22.52;82.00
42621;BME280;28252;53.336;-6.298;2023-02-13T02:12:01;102526.03;;;22.49;81.87
42621;BME280;28252;53.336;-6.298;2023-02-13T02:12:42;102521.47;;;22.50;81.69
42621;BME280;28252;53.336;-6.298;2023-02-13T02:13:20;102524.31;;;22.48;81.82
42621;BME280;28252;53.336;-6.298;2023-02-13T02:14:07;102516.16;;;22.48;81.56
42621;BME280;28252;53.336;-6.298;2023-02-13T02:14:41;102524.31;;;22.48;82.13
42621;BME280;28252;53.336;-6.298;2023-02-13T02:15:17;102517.16;;;22.47;82.39
42621;BME280;28252;53.336;-6.298;2023-02-13T02:15:53;102519.88;;;22.47;82.05
42621;BME280;28252;53.336;-6.298;2023-02-13T02:16:26;102516.44;;;22.45;82.58
42621;BME280;28252;53.336;-6.298;2023-02-13T02:16:57;102519.16;;;22.45;81.83
42621;BME280;28252;53.336;-6.298;2023-02-13T02:17:28;102524.59;;;22.45;81.98
42621;BME280;28252;53.336;-6.298;2023-02-13T02:18:01;102520.19;;;22.44;82.64
42621;BME280;28252;53.336;-6.298;2023-02-13T02:19:18;102526.59;;;22.43;82.38
42621;BME280;28252;53.336;-6.298;2023-02-13T02:20:42;102524.88;;;22.42;81.75
42621;BME280;28252;53.336;-6.298;2023-02-13T02:21:44;102523.16;;;22.41;81.60
42621;BME280;28252;53.336;-6.298;2023-02-13T02:27:33;102516.59;;;22.34;82.81
42621;BME280;28252;53.336;-6.298;2023-02-13T02:30:02;102511.44;;;22.31;82.45
42621;BME280;28252;53.336;-6.298;2023-02-13T02:32:27;102508.72;;;22.31;83.16
42621;BME280;28252;53.336;-6.298;2023-02-13T02:33:55;102510.81;;;22.27;83.40
42621;BME280;28252;53.336;-6.298;2023-02-13T02:36:08;102511.72;;;22.28;83.03
42621;BME280;28252;53.336;-6.298;2023-02-13T02:38:01;102509.22;;;22.25;82.84
42621;BME280;28252;53.336;-6.298;2023-02-13T02:38:51;102505.66;;;22.24;83.52
42621;BME280;28252;53.336;-6.298;2023-02-13T02:40:49;102505.66;;;22.24;83.36
42621;BME280;28252;53.336;-6.298;2023-02-13T02:41:29;102505.81;;;22.23;82.52
42621;BME280;28252;53.336;-6.298;2023-02-13T02:45:26;102508.78;;;22.19;83.13
42621;BME280;28252;53.336;-6.298;2023-02-13T02:46:38;102498.94;;;22.18;82.91
42621;BME280;28252;53.336;-6.298;2023-02-13T02:48:27;102498.94;;;22.18;83.23
42621;BME280;28252;53.336;-6.298;2023-02-13T02:49:23;102505.38;;;22.17;82.56
42621;BME280;28252;53.336;-6.298;2023-02-13T02:50:18;102500.94;;;22.16;83.78
42621;BME280;28252;53.336;-6.298;2023-02-13T02:50:55;102500.22;;;22.14;83.88
42621;BME280;28252;53.336;-6.298;2023-02-13T02:51:46;102507.38;;;22.15;83.03
42621;BME280;28252;53.336;-6.298;2023-02-13T02:52:19;102497.50;;;22.14;83.14
42621;BME280;28252;53.336;-6.298;2023-02-13T02:54:31;102495.94;;;22.12;83.02
42621;BME280;28252;53.336;-6.298;2023-02-13T02:56:37;102496.94;;;22.11;84.08
42621;BME280;28252;53.336;-6.298;2023-02-13T02:57:15;102491.63;;;22.09;83.90
42621;BME280;28252;53.336;-6.298;2023-02-13T02:58:01;102487.19;;;22.08;83.37
42621;BME280;28252;53.336;-6.298;2023-02-13T02:59:03;102490.91;;;22.07;83.57
42621;BME280;28252;53.336;-6.298;2023-02-13T02:59:54;102492.78;;;22.07;83.60
42621;BME280;28252;53.336;-6.298;2023-02-13T03:00:46;102494.47;;;22.08;83.00
42621;BME280;28252;53.336;-6.298;2023-02-13T03:01:37;102492.78;;;22.07;83.26
42621;BME280;28252;53.336;-6.298;2023-02-13T03:02:29;102492.78;;;22.07;83.53
42621;BME280;28252;53.336;-6.298;2023-02-13T03:03:27;102491.06;;;22.06;83.75
42621;BME280;28252;53.336;-6.298;2023-02-13T03:05:24;102492.47;;;22.00;84.08
42621;BME280;28252;53.336;-6.298;2023-02-13T03:06:19;102481.63;;;22.00;83.54
42621;BME280;28252;53.336;-6.298;2023-02-13T03:06:57;102483.31;;;22.01;83.52
42621;BME280;28252;53.336;-6.298;2023-02-13T03:07:31;102487.06;;;22.00;83.34
42621;BME280;28252;53.336;-6.298;2023-02-13T03:08:08;102492.47;;;22.00;83.75
42621;BME280;28252;53.336;-6.298;2023-02-13T03:08:50;102488.03;;;21.99;83.58
42621;BME280;28252;53.336;-6.298;2023-02-13T03:09:46;102488.88;;;21.99;82.95
42621;BME280;28252;53.336;-6.298;2023-02-13T03:10:39;102485.59;;;21.96;83.34
42621;BME280;28252;53.336;-6.298;2023-02-13T03:11:29;102479.31;;;21.95;83.77
42621;BME280;28252;53.336;-6.298;2023-02-13T03:12:25;102487.31;;;21.97;82.95
42621;BME280;28252;53.336;-6.298;2023-02-13T03:13:27;102490.03;;;21.97;82.98
42621;BME280;28252;53.336;-6.298;2023-02-13T03:14:02;102498.19;;;21.97;83.39
42621;BME280;28252;53.336;-6.298;2023-02-13T03:14:41;102486.47;;;21.96;83.38
42621;BME280;28252;53.336;-6.298;2023-02-13T03:16:18;102494.75;;;21.95;83.27
42621;BME280;28252;53.336;-6.298;2023-02-13T03:17:11;102489.31;;;21.95;83.07
42621;BME280;28252;53.336;-6.298;2023-02-13T03:18:01;102487.59;;;21.94;83.23
42621;BME280;28252;53.336;-6.298;2023-02-13T03:20:41;102479.59;;;21.92;83.21
42621;BME280;28252;53.336;-6.298;2023-02-13T03:25:17;102474.56;;;21.88;83.24
42621;BME280;28252;53.336;-6.298;2023-02-13T03:26:04;102477.28;;;21.88;83.82
42621;BME280;28252;53.336;-6.298;2023-02-13T03:26:46;102471.00;;;21.87;83.33
42621;BME280;28252;53.336;-6.298;2023-02-13T03:28:30;102476.44;;;21.87;83.26
42621;BME280;28252;53.336;-6.298;2023-02-13T03:31:28;102470.31;;;21.85;83.40
42621;BME280;28252;53.336;-6.298;2023-02-13T03:34:09;102467.72;;;21.83;83.48
42621;BME280;28252;53.336;-6.298;2023-02-13T03:34:51;102471.41;;;21.82;83.17
42621;BME280;28252;53.336;-6.298;2023-02-13T03:36:28;102473.28;;;21.82;84.02
42621;BME280;28252;53.336;-6.298;2023-02-13T03:37:02;102475.16;;;21.81;82.97
42621;BME280;28252;53.336;-6.298;2023-02-13T03:38:02;102476.13;;;21.80;83.07
42621;BME280;28252;53.336;-6.298;2023-02-13T03:40:07;102470.97;;;21.77;83.18
42621;BME280;28252;53.336;-6.298;2023-02-13T03:41:57;102479.13;;;21.77;82.98
42621;BME280;28252;53.336;-6.298;2023-02-13T03:42:41;102474.69;;;21.76;83.27
42621;BME280;28252;53.336;-6.298;2023-02-13T03:43:21;102474.69;;;21.76;83.01
42621;BME280;28252;53.336;-6.298;2023-02-13T03:44:39;102478.41;;;21.75;83.07
42621;BME280;28252;53.336;-6.298;2023-02-13T03:45:17;102471.28;;;21.74;83.25
42621;BME280;28252;53.336;-6.298;2023-02-13T03:46:13;102471.28;;;21.74;83.07
42621;BME280;28252;53.336;-6.298;2023-02-13T03:48:11;102476.69;;;21.74;83.07
42621;BME280;28252;53.336;-6.298;2023-02-13T03:49:03;102474.97;;;21.73;82.96
42621;BME280;28252;53.336;-6.298;2023-02-13T03:49:59;102472.41;;;21.72;83.69
42621;BME280;28252;53.336;-6.298;2023-02-13T03:50:40;102472.41;;;21.72;83.54
42621;BME280;28252;53.336;-6.298;2023-02-13T03:51:14;102470.66;;;21.71;83.23
42621;BME280;28252;53.336;-6.298;2023-02-13T03:52:23;102462.69;;;21.69;83.09
42621;BME280;28252;53.336;-6.298;2023-02-13T03:53:00;102470.81;;;21.69;83.61
42621;BME280;28252;53.336;-6.298;2023-02-13T03:53:33;102474.53;;;21.68;83.43
42621;BME280;28252;53.336;-6.298;2023-02-13T03:54:19;102471.81;;;21.68;83.19
42621;BME280;28252;53.336;-6.298;2023-02-13T03:55:12;102471.81;;;21.68;83.02
42621;BME280;28252;53.336;-6.298;2023-02-13T03:56:03;102473.69;;;21.68;82.95
42621;BME280;28252;53.336;-6.298;2023-02-13T03:56:54;102473.81;;;21.66;83.40
42621;BME280;28252;53.336;-6.298;2023-02-13T03:57:47;102471.22;;;21.64;83.53
42621;BME280;28252;53.336;-6.298;2023-02-13T03:58:42;102469.50;;;21.63;83.62
42621;BME280;28252;53.336;-6.298;2023-02-13T03:59:34;102468.66;;;21.63;83.53
42621;BME280;28252;53.336;-6.298;2023-02-13T04:00:12;102462.25;;;21.64;83.33
42621;BME280;28252;53.336;-6.298;2023-02-13T04:00:48;102458.78;;;21.62;82.85
42621;BME280;28252;53.336;-6.298;2023-02-13T04:01:25;102457.81;;;21.63;83.13
42621;BME280;28252;53.336;-6.298;2023-02-13T04:02:42;102459.81;;;21.61;83.75
42621;BME280;28252;53.336;-6.298;2023-02-13T04:03:28;102463.50;;;21.60;83.58
42621;BME280;28252;53.336;-6.298;2023-02-13T04:04:08;102462.66;;;21.59;83.57
42621;BME280;28252;53.336;-6.298;2023-02-13T04:06:26;102456.34;;;21.59;83.25
42621;BME280;28252;53.336;-6.298;2023-02-13T04:07:04;102459.06;;;21.59;83.37